sensor_id;sensor_type;location;lat;lon;timestamp;pressure;altitude;pressure_sealevel;temperature;humidity
55590;BME280;41452;42.780;23.116;2022-08-11T00:00:09;94549.72;;;16.85;93.17
55590;BME280;41452;42.780;23.116;2022-08-11T00:02:49;94535.63;;;16.79;93.23
55590;BME280;41452;42.780;23.116;2022-08-11T00:05:20;94545.44;;;16.79;93.04
55590;BME280;41452;42.780;23.116;2022-08-11T00:10:16;94549.16;;;16.83;92.80
55590;BME280;41452;42.780;23.116;2022-08-11T00:12:43;94540.94;;;16.79;92.98
55590;BME280;41452;42.780;23.116;2022-08-11T00:15:14;94547.56;;;16.82;92.83
55590;BME280;41452;42.780;23.116;2022-08-11T00:17:40;94461.09;;;16.29;92.62
55590;BME280;41452;42.780;23.116;2022-08-11T00:20:08;94542.25;;;16.82;92.54
55590;BME280;41452;42.780;23.116;2022-08-11T00:22:37;94543.31;;;16.76;92.50
55590;BME280;41452;42.780;23.116;2022-08-11T00:25:09;94539.59;;;16.61;92.32
55590;BME280;41452;42.780;23.116;2022-08-11T00:27:36;94538.50;;;16.57;92.35
55590;BME280;41452;42.780;23.116;2022-08-11T00:30:07;94539.56;;;16.46;92.67
55590;BME280;41452;42.780;23.116;2022-08-11T00:32:34;94538.47;;;16.37;92.86
55590;BME280;41452;42.780;23.116;2022-08-11T00:35:02;94503.72;;;16.18;92.93
55590;BME280;41452;42.780;23.116;2022-08-11T00:37:28;94546.44;;;16.42;92.91
55590;BME280;41452;42.780;23.116;2022-08-11T00:39:55;94538.53;;;16.47;92.72
55590;BME280;41452;42.780;23.116;2022-08-11T00:47:42;94534.78;;;16.43;92.46
55590;BME280;41452;42.780;23.116;2022-08-11T00:50:46;94531.06;;;16.44;92.25
55590;BME280;41452;42.780;23.116;2022-08-11T01:02:17;94522.84;;;16.40;91.85
55590;BME280;41452;42.780;23.116;2022-08-11T01:13:53;94522.78;;;16.14;92.05
55590;BME280;41452;42.780;23.116;2022-08-11T01:16:51;94531.00;;;16.08;92.08
55590;BME280;41452;42.780;23.116;2022-08-11T01:19:54;94523.81;;;16.03;92.04
55590;BME280;41452;42.780;23.116;2022-08-11T01:35:08;94507.66;;;16.05;92.19
55590;BME280;41452;42.780;23.116;2022-08-11T01:46:00;94506.03;;;15.99;91.52
55590;BME280;41452;42.780;23.116;2022-08-11T01:59:16;94516.56;;;15.78;91.72
55590;BME280;41452;42.780;23.116;2022-08-11T02:04:48;94518.69;;;15.76;92.08
55590;BME280;41452;42.780;23.116;2022-08-11T02:07:32;94521.06;;;15.77;92.12
55590;BME280;41452;42.780;23.116;2022-08-11T02:15:50;94508.00;;;15.66;92.45
55590;BME280;41452;42.780;23.116;2022-08-11T02:18:32;94510.66;;;15.66;92.47
55590;BME280;41452;42.780;23.116;2022-08-11T02:21:26;94508.28;;;15.69;92.59
55590;BME280;41452;42.780;23.116;2022-08-11T02:24:23;94512.25;;;15.72;92.25
55590;BME280;41452;42.780;23.116;2022-08-11T02:27:03;94495.00;;;15.59;92.83
55590;BME280;41452;42.780;23.116;2022-08-11T02:29:58;94516.03;;;15.76;92.82
55590;BME280;41452;42.780;23.116;2022-08-11T02:32:35;94511.78;;;15.75;92.41
55590;BME280;41452;42.780;23.116;2022-08-11T02:35:40;94435.34;;;15.36;92.61
55590;BME280;41452;42.780;23.116;2022-08-11T02:46:28;94473.06;;;15.74;91.44
55590;BME280;41452;42.780;23.116;2022-08-11T02:48:58;94508.41;;;15.95;91.27
55590;BME280;41452;42.780;23.116;2022-08-11T02:54:52;94473.69;;;15.81;90.63
55590;BME280;41452;42.780;23.116;2022-08-11T02:57:29;94502.06;;;15.96;90.64
55590;BME280;41452;42.780;23.116;2022-08-11T03:00:05;94501.28;;;15.95;90.54
55590;BME280;41452;42.780;23.116;2022-08-11T03:05:30;94503.66;;;15.92;89.96
55590;BME280;41452;42.780;23.116;2022-08-11T03:13:39;94507.59;;;15.89;90.06
55590;BME280;41452;42.780;23.116;2022-08-11T03:22:01;94512.56;;;15.75;91.07
55590;BME280;41452;42.780;23.116;2022-08-11T03:24:32;94513.63;;;15.74;91.06
55590;BME280;41452;42.780;23.116;2022-08-11T03:30:09;94513.28;;;15.66;91.38
55590;BME280;41452;42.780;23.116;2022-08-11T03:38:53;94509.34;;;15.73;92.44
55590;BME280;41452;42.780;23.116;2022-08-11T03:41:54;94443.53;;;15.34;92.14
55590;BME280;41452;42.780;23.116;2022-08-11T03:52:39;94500.88;;;15.71;92.22
55590;BME280;41452;42.780;23.116;2022-08-11T04:03:49;94498.81;;;15.78;93.34
55590;BME280;41452;42.780;23.116;2022-08-11T04:06:38;94506.50;;;15.80;93.42
55590;BME280;41452;42.780;23.116;2022-08-11T04:12:52;94504.66;;;15.81;94.21
55590;BME280;41452;42.780;23.116;2022-08-11T04:18:23;94505.19;;;15.83;95.58
55590;BME280;41452;42.780;23.116;2022-08-11T04:21:19;94511.31;;;15.88;95.83
55590;BME280;41452;42.780;23.116;2022-08-11T04:57:48;94505.59;;;16.32;100.00
55590;BME280;41452;42.780;23.116;2022-08-11T05:12:48;94520.50;;;16.75;100.00
55590;BME280;41452;42.780;23.116;2022-08-11T05:15:19;94512.53;;;16.64;99.91
55590;BME280;41452;42.780;23.116;2022-08-11T05:18:19;94509.09;;;16.64;100.00
55590;BME280;41452;42.780;23.116;2022-08-11T05:21:10;94486.03;;;16.54;100.00
55590;BME280;41452;42.780;23.116;2022-08-11T05:24:16;94522.13;;;16.81;100.00
55590;BME280;41452;42.780;23.116;2022-08-11T05:27:04;94500.09;;;16.75;100.00
55590;BME280;41452;42.780;23.116;2022-08-11T05:30:05;94525.34;;;16.93;100.00
55590;BME280;41452;42.780;23.116;2022-08-11T05:33:01;94524.78;;;16.96;100.00
55590;BME280;41452;42.780;23.116;2022-08-11T05:35:48;94479.94;;;16.74;100.00
55590;BME280;41452;42.780;23.116;2022-08-11T05:38:20;94532.22;;;17.09;100.00
55590;BME280;41452;42.780;23.116;2022-08-11T05:41:07;94529.03;;;17.13;100.00
55590;BME280;41452;42.780;23.116;2022-08-11T05:43:54;94480.75;;;16.90;100.00
55590;BME280;41452;42.780;23.116;2022-08-11T05:46:41;94513.34;;;17.21;100.00
55590;BME280;41452;42.780;23.116;2022-08-11T05:49:28;94522.41;;;17.25;100.00
55590;BME280;41452;42.780;23.116;2022-08-11T05:52:17;94526.88;;;17.25;100.00
55590;BME280;41452;42.780;23.116;2022-08-11T05:55:04;94498.78;;;17.19;100.00
55590;BME280;41452;42.780;23.116;2022-08-11T05:57:53;94473.06;;;17.09;100.00
55590;BME280;41452;42.780;23.116;2022-08-11T06:00:19;94503.81;;;17.36;100.00
55590;BME280;41452;42.780;23.116;2022-08-11T06:02:50;94525.50;;;17.58;100.00
55590;BME280;41452;42.780;23.116;2022-08-11T06:05:19;94527.13;;;17.59;99.43
55590;BME280;41452;42.780;23.116;2022-08-11T06:07:47;94520.97;;;17.64;99.03
55590;BME280;41452;42.780;23.116;2022-08-11T06:10:12;94505.63;;;17.56;99.89
55590;BME280;41452;42.780;23.116;2022-08-11T06:12:39;94480.69;;;17.46;99.81
55590;BME280;41452;42.780;23.116;2022-08-11T06:15:09;94527.84;;;17.80;99.50
55590;BME280;41452;42.780;23.116;2022-08-11T06:17:45;94525.22;;;17.85;98.66
55590;BME280;41452;42.780;23.116;2022-08-11T06:20:12;94521.97;;;17.94;98.35
55590;BME280;41452;42.780;23.116;2022-08-11T06:22:40;94515.59;;;18.00;98.98
55590;BME280;41452;42.780;23.116;2022-08-11T06:25:07;94511.81;;;18.11;99.43
55590;BME280;41452;42.780;23.116;2022-08-11T06:27:36;94512.56;;;18.17;98.88
55590;BME280;41452;42.780;23.116;2022-08-11T06:30:04;94504.81;;;18.26;98.34
55590;BME280;41452;42.780;23.116;2022-08-11T06:32:43;94507.19;;;18.32;97.25
55590;BME280;41452;42.780;23.116;2022-08-11T06:35:35;94488.59;;;18.27;97.10
55590;BME280;41452;42.780;23.116;2022-08-11T06:40:45;94520.06;;;18.54;95.83
55590;BME280;41452;42.780;23.116;2022-08-11T06:44:08;94518.13;;;18.65;96.47
55590;BME280;41452;42.780;23.116;2022-08-11T06:46:42;94488.69;;;18.56;95.90
55590;BME280;41452;42.780;23.116;2022-08-11T06:49:11;94522.03;;;18.83;96.78
55590;BME280;41452;42.780;23.116;2022-08-11T06:51:59;94524.44;;;18.79;95.10
55590;BME280;41452;42.780;23.116;2022-08-11T06:54:28;94513.38;;;18.67;93.74
55590;BME280;41452;42.780;23.116;2022-08-11T06:56:56;94503.28;;;18.64;94.78
55590;BME280;41452;42.780;23.116;2022-08-11T06:59:42;94504.06;;;18.65;94.00
55590;BME280;41452;42.780;23.116;2022-08-11T07:05:03;94545.44;;;18.86;93.54
55590;BME280;41452;42.780;23.116;2022-08-11T07:23:33;94538.25;;;19.21;92.13
55590;BME280;41452;42.780;23.116;2022-08-11T07:26:21;94507.13;;;19.16;91.11
55590;BME280;41452;42.780;23.116;2022-08-11T07:29:09;94528.00;;;19.38;88.96
55590;BME280;41452;42.780;23.116;2022-08-11T07:31:45;94493.28;;;19.19;87.93
55590;BME280;41452;42.780;23.116;2022-08-11T07:36:53;94537.03;;;19.67;90.40
55590;BME280;41452;42.780;23.116;2022-08-11T07:39:22;94527.66;;;19.69;87.66
55590;BME280;41452;42.780;23.116;2022-08-11T07:41:50;94526.00;;;19.79;87.69
55590;BME280;41452;42.780;23.116;2022-08-11T07:44:17;94526.22;;;19.82;87.26
55590;BME280;41452;42.780;23.116;2022-08-11T07:46:45;94528.59;;;19.84;85.34
55590;BME280;41452;42.780;23.116;2022-08-11T07:49:33;94528.28;;;19.90;87.60
55590;BME280;41452;42.780;23.116;2022-08-11T07:52:18;94527.50;;;19.90;87.08
55590;BME280;41452;42.780;23.116;2022-08-11T07:55:03;94498.84;;;19.77;85.23
55590;BME280;41452;42.780;23.116;2022-08-11T07:57:30;94525.22;;;20.02;86.53
55590;BME280;41452;42.780;23.116;2022-08-11T08:00:15;94527.72;;;20.12;86.96
55590;BME280;41452;42.780;23.116;2022-08-11T08:03:00;94524.94;;;20.23;86.36
55590;BME280;41452;42.780;23.116;2022-08-11T08:05:46;94497.06;;;20.15;85.16
55590;BME280;41452;42.780;23.116;2022-08-11T08:08:31;94519.72;;;20.37;85.94
55590;BME280;41452;42.780;23.116;2022-08-11T08:11:16;94525.13;;;20.50;85.11
55590;BME280;41452;42.780;23.116;2022-08-11T08:14:02;94517.84;;;20.56;84.32
55590;BME280;41452;42.780;23.116;2022-08-11T08:16:47;94509.91;;;20.51;81.40
55590;BME280;41452;42.780;23.116;2022-08-11T08:19:31;94511.13;;;20.59;79.60
55590;BME280;41452;42.780;23.116;2022-08-11T08:21:57;94523.72;;;20.77;78.50
55590;BME280;41452;42.780;23.116;2022-08-11T08:24:23;94518.72;;;20.89;81.07
55590;BME280;41452;42.780;23.116;2022-08-11T08:26:50;94496.22;;;20.77;78.02
55590;BME280;41452;42.780;23.116;2022-08-11T08:29:36;94512.13;;;21.01;80.59
55590;BME280;41452;42.780;23.116;2022-08-11T08:32:20;94465.56;;;20.74;77.32
55590;BME280;41452;42.780;23.116;2022-08-11T08:34:51;94483.13;;;20.94;79.32
55590;BME280;41452;42.780;23.116;2022-08-11T08:37:18;94494.34;;;21.10;80.01
55590;BME280;41452;42.780;23.116;2022-08-11T08:39:45;94511.59;;;21.32;77.99
55590;BME280;41452;42.780;23.116;2022-08-11T08:42:16;94504.81;;;21.39;79.89
55590;BME280;41452;42.780;23.116;2022-08-11T08:44:48;94517.78;;;21.46;76.99
55590;BME280;41452;42.780;23.116;2022-08-11T08:47:18;94511.28;;;21.52;75.36
55590;BME280;41452;42.780;23.116;2022-08-11T08:50:04;94513.88;;;21.57;75.90
55590;BME280;41452;42.780;23.116;2022-08-11T08:52:36;94475.63;;;21.43;77.69
55590;BME280;41452;42.780;23.116;2022-08-11T08:55:05;94513.91;;;21.71;77.70
55590;BME280;41452;42.780;23.116;2022-08-11T08:57:35;94519.84;;;21.82;75.94
55590;BME280;41452;42.780;23.116;2022-08-11T09:00:04;94503.38;;;21.89;75.85
55590;BME280;41452;42.780;23.116;2022-08-11T09:02:31;94509.75;;;21.93;75.09
55590;BME280;41452;42.780;23.116;2022-08-11T09:04:57;94483.88;;;21.88;78.89
55590;BME280;41452;42.780;23.116;2022-08-11T09:07:23;94479.41;;;21.97;74.39
55590;BME280;41452;42.780;23.116;2022-08-11T09:09:55;94511.69;;;22.15;72.17
55590;BME280;41452;42.780;23.116;2022-08-11T09:12:26;94506.44;;;22.24;74.11
55590;BME280;41452;42.780;23.116;2022-08-11T09:14:52;94469.31;;;22.08;75.23
55590;BME280;41452;42.780;23.116;2022-08-11T09:17:26;94498.78;;;22.45;73.59
55590;BME280;41452;42.780;23.116;2022-08-11T09:20:11;94488.69;;;22.42;74.55
55590;BME280;41452;42.780;23.116;2022-08-11T09:22:39;94498.94;;;22.62;74.75
55590;BME280;41452;42.780;23.116;2022-08-11T09:25:26;94471.94;;;22.50;71.81
55590;BME280;41452;42.780;23.116;2022-08-11T09:28:13;94498.72;;;22.72;72.60
55590;BME280;41452;42.780;23.116;2022-08-11T09:30:41;94502.97;;;22.73;71.10
55590;BME280;41452;42.780;23.116;2022-08-11T09:33:08;94497.91;;;22.72;68.94
55590;BME280;41452;42.780;23.116;2022-08-11T09:35:36;94481.66;;;22.68;68.04
55590;BME280;41452;42.780;23.116;2022-08-11T09:38:04;94501.41;;;22.95;68.88
55590;BME280;41452;42.780;23.116;2022-08-11T09:40:50;94458.31;;;22.83;69.59
55590;BME280;41452;42.780;23.116;2022-08-11T09:43:17;94454.25;;;22.85;68.33
55590;BME280;41452;42.780;23.116;2022-08-11T09:46:02;94485.97;;;23.14;68.00
55590;BME280;41452;42.780;23.116;2022-08-11T09:48:30;94486.19;;;23.27;67.59
55590;BME280;41452;42.780;23.116;2022-08-11T09:51:00;94482.31;;;23.33;67.38
55590;BME280;41452;42.780;23.116;2022-08-11T09:53:38;94478.97;;;23.36;67.14
55590;BME280;41452;42.780;23.116;2022-08-11T09:56:08;94471.72;;;23.28;68.84
55590;BME280;41452;42.780;23.116;2022-08-11T09:58:53;94469.69;;;23.33;67.51
55590;BME280;41452;42.780;23.116;2022-08-11T10:01:20;94478.50;;;23.34;66.84
55590;BME280;41452;42.780;23.116;2022-08-11T10:03:58;94473.84;;;23.48;65.96
55590;BME280;41452;42.780;23.116;2022-08-11T10:06:27;94472.63;;;23.54;63.52
55590;BME280;41452;42.780;23.116;2022-08-11T10:09:15;94449.72;;;23.48;66.09
55590;BME280;41452;42.780;23.116;2022-08-11T10:11:42;94463.34;;;23.61;65.00
55590;BME280;41452;42.780;23.116;2022-08-11T10:14:09;94457.41;;;23.72;65.31
55590;BME280;41452;42.780;23.116;2022-08-11T10:16:54;94465.53;;;23.90;65.75
55590;BME280;41452;42.780;23.116;2022-08-11T10:19:21;94460.81;;;23.96;62.97
55590;BME280;41452;42.780;23.116;2022-08-11T10:21:50;94468.72;;;24.01;65.64
55590;BME280;41452;42.780;23.116;2022-08-11T10:24:36;94384.00;;;23.51;60.36
55590;BME280;41452;42.780;23.116;2022-08-11T10:27:21;94457.66;;;24.02;59.07
55590;BME280;41452;42.780;23.116;2022-08-11T10:29:48;94448.97;;;24.05;61.34
55590;BME280;41452;42.780;23.116;2022-08-11T10:32:34;94442.38;;;24.12;59.74
55590;BME280;41452;42.780;23.116;2022-08-11T10:35:20;94470.63;;;24.26;58.92
55590;BME280;41452;42.780;23.116;2022-08-11T10:37:46;94453.91;;;24.29;58.66
55590;BME280;41452;42.780;23.116;2022-08-11T10:40:14;94465.44;;;24.39;59.59
55590;BME280;41452;42.780;23.116;2022-08-11T10:42:42;94446.97;;;24.28;56.25
55590;BME280;41452;42.780;23.116;2022-08-11T10:45:28;94458.03;;;24.44;58.91
55590;BME280;41452;42.780;23.116;2022-08-11T10:48:13;94449.84;;;24.58;55.85
55590;BME280;41452;42.780;23.116;2022-08-11T10:50:46;94446.84;;;24.69;55.06
55590;BME280;41452;42.780;23.116;2022-08-11T10:53:30;94443.69;;;24.66;56.25
55590;BME280;41452;42.780;23.116;2022-08-11T10:56:16;94417.94;;;24.57;54.83
55590;BME280;41452;42.780;23.116;2022-08-11T10:59:01;94405.66;;;24.64;54.07
55590;BME280;41452;42.780;23.116;2022-08-11T11:01:32;94428.50;;;24.88;52.33
55590;BME280;41452;42.780;23.116;2022-08-11T11:04:31;94414.91;;;24.93;52.45
55590;BME280;41452;42.780;23.116;2022-08-11T11:07:08;94414.13;;;25.01;51.79
55590;BME280;41452;42.780;23.116;2022-08-11T11:09:46;94404.47;;;25.00;51.91
55590;BME280;41452;42.780;23.116;2022-08-11T11:12:20;94386.59;;;25.04;52.00
55590;BME280;41452;42.780;23.116;2022-08-11T11:15:07;94402.53;;;25.27;51.14
55590;BME280;41452;42.780;23.116;2022-08-11T11:18:07;94415.13;;;25.44;54.84
55590;BME280;41452;42.780;23.116;2022-08-11T11:20:56;94417.00;;;25.43;51.78
55590;BME280;41452;42.780;23.116;2022-08-11T11:23:42;94422.72;;;25.33;49.66
55590;BME280;41452;42.780;23.116;2022-08-11T11:34:41;94401.22;;;25.33;48.37
55590;BME280;41452;42.780;23.116;2022-08-11T11:37:10;94403.56;;;25.43;47.65
55590;BME280;41452;42.780;23.116;2022-08-11T11:39:38;94409.22;;;25.51;44.79
55590;BME280;41452;42.780;23.116;2022-08-11T11:42:08;94400.97;;;25.56;44.07
55590;BME280;41452;42.780;23.116;2022-08-11T11:44:37;94372.66;;;25.29;43.30
55590;BME280;41452;42.780;23.116;2022-08-11T11:47:04;94401.56;;;25.61;42.86
55590;BME280;41452;42.780;23.116;2022-08-11T11:49:30;94369.59;;;25.39;43.91
55590;BME280;41452;42.780;23.116;2022-08-11T11:51:58;94393.50;;;25.61;45.08
55590;BME280;41452;42.780;23.116;2022-08-11T11:54:26;94395.50;;;25.73;44.99
55590;BME280;41452;42.780;23.116;2022-08-11T11:56:53;94405.09;;;25.83;44.16
55590;BME280;41452;42.780;23.116;2022-08-11T11:59:21;94378.28;;;25.74;44.68
55590;BME280;41452;42.780;23.116;2022-08-11T12:02:10;94373.88;;;25.70;44.22
55590;BME280;41452;42.780;23.116;2022-08-11T12:04:40;94401.44;;;25.96;47.42
55590;BME280;41452;42.780;23.116;2022-08-11T12:07:06;94394.94;;;25.97;43.67
55590;BME280;41452;42.780;23.116;2022-08-11T12:09:50;94391.31;;;25.93;42.60
55590;BME280;41452;42.780;23.116;2022-08-11T12:12:17;94370.75;;;25.89;45.86
55590;BME280;41452;42.780;23.116;2022-08-11T12:15:01;94392.84;;;26.03;42.99
55590;BME280;41452;42.780;23.116;2022-08-11T12:17:26;94377.41;;;26.12;42.55
55590;BME280;41452;42.780;23.116;2022-08-11T12:19:52;94361.47;;;26.07;43.72
55590;BME280;41452;42.780;23.116;2022-08-11T12:22:18;94379.19;;;26.29;45.24
55590;BME280;41452;42.780;23.116;2022-08-11T12:28:24;94361.22;;;26.21;47.60
55590;BME280;41452;42.780;23.116;2022-08-11T12:30:51;94372.81;;;26.34;45.20
55590;BME280;41452;42.780;23.116;2022-08-11T12:33:17;94367.56;;;26.37;45.72
55590;BME280;41452;42.780;23.116;2022-08-11T12:35:45;94353.53;;;26.32;44.02
55590;BME280;41452;42.780;23.116;2022-08-11T12:38:13;94366.38;;;26.47;41.27
55590;BME280;41452;42.780;23.116;2022-08-11T12:40:40;94371.41;;;26.49;45.15
55590;BME280;41452;42.780;23.116;2022-08-11T12:43:28;94355.13;;;26.45;46.76
55590;BME280;41452;42.780;23.116;2022-08-11T12:46:18;94366.31;;;26.56;49.34
55590;BME280;41452;42.780;23.116;2022-08-11T12:48:47;94362.22;;;26.50;48.08
55590;BME280;41452;42.780;23.116;2022-08-11T12:51:35;94363.56;;;26.44;48.27
55590;BME280;41452;42.780;23.116;2022-08-11T12:54:30;94364.13;;;26.49;49.10
55590;BME280;41452;42.780;23.116;2022-08-11T12:57:03;94357.41;;;26.55;48.64
55590;BME280;41452;42.780;23.116;2022-08-11T12:59:50;94353.13;;;26.63;49.24
55590;BME280;41452;42.780;23.116;2022-08-11T13:02:35;94336.56;;;26.52;46.50
55590;BME280;41452;42.780;23.116;2022-08-11T13:05:20;94351.91;;;26.52;46.57
55590;BME280;41452;42.780;23.116;2022-08-11T13:07:46;94319.69;;;26.22;50.06
55590;BME280;41452;42.780;23.116;2022-08-11T13:10:15;94353.19;;;26.33;47.34
55590;BME280;41452;42.780;23.116;2022-08-11T13:13:06;94353.06;;;26.30;47.92
55590;BME280;41452;42.780;23.116;2022-08-11T13:15:33;94335.28;;;26.16;48.51
55590;BME280;41452;42.780;23.116;2022-08-11T13:31:27;94331.41;;;25.54;51.33
55590;BME280;41452;42.780;23.116;2022-08-11T13:33:52;94355.28;;;25.56;52.74
55590;BME280;41452;42.780;23.116;2022-08-11T13:36:20;94344.47;;;25.35;52.69
55590;BME280;41452;42.780;23.116;2022-08-11T13:38:47;94327.31;;;25.10;53.00
55590;BME280;41452;42.780;23.116;2022-08-11T13:41:13;94327.66;;;24.99;53.56
55590;BME280;41452;42.780;23.116;2022-08-11T13:43:58;94346.31;;;24.96;53.48
55590;BME280;41452;42.780;23.116;2022-08-11T13:46:24;94344.63;;;24.91;53.15
55590;BME280;41452;42.780;23.116;2022-08-11T13:48:54;94347.78;;;24.93;53.92
55590;BME280;41452;42.780;23.116;2022-08-11T13:51:23;94352.53;;;24.88;53.57
55590;BME280;41452;42.780;23.116;2022-08-11T13:53:57;94349.69;;;24.84;53.23
55590;BME280;41452;42.780;23.116;2022-08-11T13:56:24;94340.69;;;24.80;53.21
55590;BME280;41452;42.780;23.116;2022-08-11T13:58:50;94348.13;;;24.74;53.45
55590;BME280;41452;42.780;23.116;2022-08-11T14:01:18;94346.41;;;24.70;53.51
55590;BME280;41452;42.780;23.116;2022-08-11T14:03:45;94339.31;;;24.65;54.50
55590;BME280;41452;42.780;23.116;2022-08-11T14:06:12;94326.53;;;24.53;54.58
55590;BME280;41452;42.780;23.116;2022-08-11T14:08:39;94345.44;;;24.65;53.98
55590;BME280;41452;42.780;23.116;2022-08-11T14:11:07;94340.22;;;24.69;53.77
55590;BME280;41452;42.780;23.116;2022-08-11T14:13:52;94339.91;;;24.71;54.50
55590;BME280;41452;42.780;23.116;2022-08-11T14:16:23;94341.34;;;24.77;54.54
55590;BME280;41452;42.780;23.116;2022-08-11T14:18:53;94344.97;;;24.81;54.09
55590;BME280;41452;42.780;23.116;2022-08-11T14:21:22;94345.72;;;24.90;52.25
55590;BME280;41452;42.780;23.116;2022-08-11T14:24:07;94342.09;;;24.86;52.38
55590;BME280;41452;42.780;23.116;2022-08-11T14:26:36;94327.75;;;24.82;52.22
55590;BME280;41452;42.780;23.116;2022-08-11T14:29:08;94296.50;;;24.60;53.01
55590;BME280;41452;42.780;23.116;2022-08-11T14:31:37;94339.41;;;24.86;52.16
55590;BME280;41452;42.780;23.116;2022-08-11T14:34:05;94338.16;;;24.83;52.17
55590;BME280;41452;42.780;23.116;2022-08-11T14:36:37;94347.00;;;24.84;52.22
55590;BME280;41452;42.780;23.116;2022-08-11T14:39:07;94343.06;;;24.81;51.92
55590;BME280;41452;42.780;23.116;2022-08-11T14:41:36;94339.44;;;24.77;51.63
55590;BME280;41452;42.780;23.116;2022-08-11T14:44:20;94339.91;;;24.71;51.79
55590;BME280;41452;42.780;23.116;2022-08-11T14:47:04;94337.22;;;24.71;51.95
55590;BME280;41452;42.780;23.116;2022-08-11T14:49:35;94335.97;;;24.77;52.86
55590;BME280;41452;42.780;23.116;2022-08-11T14:52:05;94339.88;;;24.88;53.12
55590;BME280;41452;42.780;23.116;2022-08-11T14:54:32;94303.47;;;24.70;51.85
55590;BME280;41452;42.780;23.116;2022-08-11T14:57:17;94327.06;;;24.94;53.14
55590;BME280;41452;42.780;23.116;2022-08-11T14:59:45;94317.59;;;24.96;53.13
55590;BME280;41452;42.780;23.116;2022-08-11T15:02:13;94325.47;;;25.01;53.06
55590;BME280;41452;42.780;23.116;2022-08-11T15:04:58;94317.16;;;25.15;51.96
55590;BME280;41452;42.780;23.116;2022-08-11T15:07:25;94323.34;;;25.25;54.43
55590;BME280;41452;42.780;23.116;2022-08-11T15:09:59;94318.75;;;25.25;53.98
55590;BME280;41452;42.780;23.116;2022-08-11T15:12:26;94323.00;;;25.26;52.97
55590;BME280;41452;42.780;23.116;2022-08-11T15:14:53;94316.22;;;25.20;53.10
55590;BME280;41452;42.780;23.116;2022-08-11T15:17:37;94327.88;;;25.24;53.72
55590;BME280;41452;42.780;23.116;2022-08-11T15:20:07;94319.06;;;25.15;52.17
55590;BME280;41452;42.780;23.116;2022-08-11T15:22:52;94307.75;;;25.00;52.39
55590;BME280;41452;42.780;23.116;2022-08-11T15:25:36;94326.72;;;25.04;53.44
55590;BME280;41452;42.780;23.116;2022-08-11T15:28:05;94326.75;;;24.95;54.25
55590;BME280;41452;42.780;23.116;2022-08-11T15:30:53;94306.31;;;24.64;51.77
55590;BME280;41452;42.780;23.116;2022-08-11T15:33:39;94319.56;;;24.70;52.53
55590;BME280;41452;42.780;23.116;2022-08-11T15:36:28;94329.34;;;24.65;52.49
55590;BME280;41452;42.780;23.116;2022-08-11T15:39:18;94327.81;;;24.56;52.64
55590;BME280;41452;42.780;23.116;2022-08-11T15:42:07;94331.72;;;24.49;52.79
55590;BME280;41452;42.780;23.116;2022-08-11T15:45:02;94323.53;;;24.37;52.65
55590;BME280;41452;42.780;23.116;2022-08-11T15:47:51;94334.75;;;24.31;52.75
55590;BME280;41452;42.780;23.116;2022-08-11T15:50:24;94334.25;;;24.28;52.86
55590;BME280;41452;42.780;23.116;2022-08-11T15:53:24;94326.22;;;24.28;52.71
55590;BME280;41452;42.780;23.116;2022-08-11T15:55:51;94326.22;;;24.28;53.59
55590;BME280;41452;42.780;23.116;2022-08-11T15:58:19;94325.13;;;24.29;53.32
55590;BME280;41452;42.780;23.116;2022-08-11T16:01:04;94330.31;;;24.35;51.87
55590;BME280;41452;42.780;23.116;2022-08-11T16:03:53;94334.09;;;24.34;52.87
55590;BME280;41452;42.780;23.116;2022-08-11T16:06:52;94338.84;;;24.37;52.14
55590;BME280;41452;42.780;23.116;2022-08-11T16:09:26;94343.44;;;24.36;52.80
55590;BME280;41452;42.780;23.116;2022-08-11T16:11:53;94343.28;;;24.33;52.63
55590;BME280;41452;42.780;23.116;2022-08-11T16:14:22;94297.69;;;23.98;53.14
55590;BME280;41452;42.780;23.116;2022-08-11T16:17:09;94339.16;;;24.26;52.46
55590;BME280;41452;42.780;23.116;2022-08-11T16:19:36;94341.38;;;24.24;52.79
55590;BME280;41452;42.780;23.116;2022-08-11T16:22:08;94341.06;;;24.17;53.18
55590;BME280;41452;42.780;23.116;2022-08-11T16:24:40;94345.97;;;24.06;53.13
55590;BME280;41452;42.780;23.116;2022-08-11T16:27:09;94344.22;;;24.02;53.23
55590;BME280;41452;42.780;23.116;2022-08-11T16:29:40;94342.50;;;23.97;53.35
55590;BME280;41452;42.780;23.116;2022-08-11T16:32:10;94324.16;;;23.82;52.94
55590;BME280;41452;42.780;23.116;2022-08-11T16:34:47;94344.53;;;23.91;53.52
55590;BME280;41452;42.780;23.116;2022-08-11T16:37:35;94343.09;;;23.85;53.24
55590;BME280;41452;42.780;23.116;2022-08-11T16:40:20;94341.69;;;23.88;52.70
55590;BME280;41452;42.780;23.116;2022-08-11T16:42:47;94327.44;;;23.79;52.86
55590;BME280;41452;42.780;23.116;2022-08-11T16:45:33;94316.72;;;23.70;52.93
55590;BME280;41452;42.780;23.116;2022-08-11T16:48:18;94339.28;;;23.78;55.01
55590;BME280;41452;42.780;23.116;2022-08-11T16:50:45;94343.69;;;23.73;55.91
55590;BME280;41452;42.780;23.116;2022-08-11T16:53:11;94343.19;;;23.63;57.05
55590;BME280;41452;42.780;23.116;2022-08-11T16:55:36;94351.69;;;23.47;56.28
55590;BME280;41452;42.780;23.116;2022-08-11T16:58:04;94335.53;;;23.30;55.29
55590;BME280;41452;42.780;23.116;2022-08-11T17:00:50;94354.63;;;23.37;56.84
55590;BME280;41452;42.780;23.116;2022-08-11T17:03:17;94365.03;;;23.30;57.05
55590;BME280;41452;42.780;23.116;2022-08-11T17:06:04;94361.53;;;23.21;56.67
55590;BME280;41452;42.780;23.116;2022-08-11T17:08:52;94377.59;;;23.21;56.36
55590;BME280;41452;42.780;23.116;2022-08-11T17:11:50;94349.63;;;23.04;56.99
55590;BME280;41452;42.780;23.116;2022-08-11T17:14:56;94377.72;;;23.15;57.58
55590;BME280;41452;42.780;23.116;2022-08-11T17:17:36;94378.47;;;23.07;58.04